createdAt,value
2023-02-03T00:00:01.579Z,26.69
2023-02-03T00:01:01.570Z,26.68
2023-02-03T00:02:01.666Z,26.67
2023-02-03T00:03:01.620Z,26.68
2023-02-03T00:04:01.550Z,26.68
2023-02-03T00:05:01.546Z,26.69
2023-02-03T00:06:01.552Z,26.70
2023-02-03T00:07:01.560Z,26.69
2023-02-03T00:08:01.576Z,26.69
2023-02-03T00:09:01.581Z,26.68
2023-02-03T00:10:01.590Z,26.67
2023-02-03T00:11:01.595Z,26.72
2023-02-03T00:12:01.633Z,26.72
2023-02-03T00:13:01.589Z,26.71
2023-02-03T00:14:01.645Z,26.70
2023-02-03T00:15:01.619Z,26.71
2023-02-03T00:16:01.672Z,26.70
2023-02-03T00:17:01.624Z,26.72
2023-02-03T00:18:01.618Z,26.74
2023-02-03T00:19:01.628Z,26.73
2023-02-03T00:20:01.624Z,26.73
2023-02-03T00:21:01.633Z,26.75
2023-02-03T00:22:01.635Z,26.79
2023-02-03T00:23:01.649Z,26.78
2023-02-03T00:24:01.639Z,26.75
2023-02-03T00:25:01.653Z,26.76
2023-02-03T00:26:01.645Z,26.79
2023-02-03T00:27:01.658Z,26.81
2023-02-03T00:28:01.717Z,26.79
2023-02-03T00:29:01.649Z,26.78
2023-02-03T00:30:01.663Z,26.78
2023-02-03T00:31:01.651Z,26.79
2023-02-03T00:32:01.798Z,26.77
2023-02-03T00:33:01.715Z,26.78
2023-02-03T00:34:01.682Z,26.79
2023-02-03T00:35:01.681Z,26.81
2023-02-03T00:36:01.692Z,26.81
2023-02-03T00:37:01.702Z,26.81
2023-02-03T00:38:01.712Z,26.82
2023-02-03T00:39:01.737Z,26.83
2023-02-03T00:40:01.734Z,26.87
2023-02-03T00:41:01.743Z,26.85
2023-02-03T00:42:01.730Z,26.83
2023-02-03T00:43:01.781Z,26.83
2023-02-03T00:44:01.745Z,26.82
2023-02-03T00:45:01.764Z,26.82
2023-02-03T00:46:01.804Z,26.86
2023-02-03T00:47:01.806Z,26.86
2023-02-03T00:48:01.785Z,26.85
2023-02-03T00:49:01.822Z,26.85
2023-02-03T00:50:01.814Z,26.89
2023-02-03T00:51:01.842Z,26.88
2023-02-03T00:52:01.830Z,26.89
2023-02-03T00:53:01.873Z,26.87
2023-02-03T00:54:01.916Z,26.91
2023-02-03T00:55:01.885Z,26.89
2023-02-03T00:56:01.890Z,26.90
2023-02-03T00:57:01.875Z,26.91
2023-02-03T00:58:01.876Z,26.92
2023-02-03T00:59:01.886Z,26.91
2023-02-03T01:00:01.891Z,26.90
2023-02-03T01:01:01.932Z,26.92
2023-02-03T01:02:01.954Z,26.90
2023-02-03T01:03:01.923Z,26.92
2023-02-03T01:04:01.933Z,26.92
2023-02-03T01:05:01.922Z,26.93
2023-02-03T01:06:01.932Z,26.94
2023-02-03T01:07:01.980Z,26.96
2023-02-03T01:08:01.963Z,26.96
2023-02-03T01:09:01.995Z,26.95
2023-02-03T01:10:01.986Z,26.95
2023-02-03T01:11:02.011Z,26.96
2023-02-03T01:12:02.019Z,26.99
2023-02-03T01:13:02.053Z,26.99
2023-02-03T01:14:02.027Z,27.01
2023-02-03T01:15:02.032Z,27.02
2023-02-03T01:16:02.007Z,27.02
2023-02-03T01:17:02.121Z,27.02
2023-02-03T01:18:02.004Z,27.01
2023-02-03T01:19:02.062Z,27.03
2023-02-03T01:20:02.027Z,27.03
2023-02-03T01:21:02.009Z,27.05
2023-02-03T01:22:02.023Z,27.05
2023-02-03T01:23:02.503Z,27.07
2023-02-03T01:24:02.044Z,27.06
2023-02-03T01:25:02.043Z,27.06
2023-02-03T01:26:02.006Z,27.08
2023-02-03T01:27:02.056Z,27.08
2023-02-03T01:28:02.153Z,27.10
2023-02-03T01:29:02.061Z,27.09
2023-02-03T01:30:02.046Z,27.07
2023-02-03T01:31:02.124Z,27.08
2023-02-03T01:32:02.111Z,27.07
2023-02-03T01:33:02.049Z,27.09
2023-02-03T01:34:02.081Z,27.05
2023-02-03T01:35:02.067Z,27.07
2023-02-03T01:36:02.070Z,27.05
2023-02-03T01:37:02.032Z,27.07
2023-02-03T01:38:02.048Z,27.11
2023-02-03T01:39:02.088Z,27.10
2023-02-03T01:40:02.039Z,27.10
2023-02-03T01:41:02.046Z,27.10
2023-02-03T01:42:02.041Z,27.12
2023-02-03T01:43:02.055Z,27.15
2023-02-03T01:44:02.062Z,27.18
2023-02-03T01:45:02.085Z,27.17
2023-02-03T01:46:02.044Z,27.17
2023-02-03T01:47:02.039Z,27.16
2023-02-03T01:48:02.041Z,27.16
2023-02-03T01:49:02.051Z,27.17
2023-02-03T01:50:02.057Z,27.19
2023-02-03T01:51:02.046Z,27.17
2023-02-03T01:52:02.034Z,27.17
2023-02-03T01:53:02.054Z,27.19
2023-02-03T01:54:02.074Z,27.21
2023-02-03T01:55:02.057Z,27.20
2023-02-03T01:56:02.080Z,27.20
2023-02-03T01:57:02.136Z,27.20
2023-02-03T01:58:02.056Z,27.24
2023-02-03T01:59:02.119Z,27.22
2023-02-03T02:00:02.085Z,27.18
2023-02-03T02:01:02.151Z,27.21
2023-02-03T02:02:02.104Z,27.21
2023-02-03T02:03:02.119Z,27.23
2023-02-03T02:04:02.144Z,27.20
2023-02-03T02:05:02.108Z,27.18
2023-02-03T02:06:02.123Z,27.21
2023-02-03T02:07:02.101Z,27.22
2023-02-03T02:08:02.123Z,27.24
2023-02-03T02:09:02.148Z,27.22
2023-02-03T02:10:02.160Z,27.24
2023-02-03T02:11:02.139Z,27.25
2023-02-03T02:12:02.128Z,27.24
2023-02-03T02:13:02.156Z,27.27
2023-02-03T02:14:02.232Z,27.32
2023-02-03T02:15:02.170Z,27.30
2023-02-03T02:16:02.309Z,27.31
2023-02-03T02:17:02.176Z,27.33
2023-02-03T02:18:02.173Z,27.34
2023-02-03T02:19:02.194Z,27.30
2023-02-03T02:20:02.195Z,27.30
2023-02-03T02:21:02.211Z,27.31
2023-02-03T02:22:02.196Z,27.32
2023-02-03T02:23:02.218Z,27.30
2023-02-03T02:24:02.210Z,27.31
2023-02-03T02:25:02.235Z,27.30
2023-02-03T02:26:02.224Z,27.32
2023-02-03T02:27:02.246Z,27.33
2023-02-03T02:28:02.389Z,27.31
2023-02-03T02:29:02.328Z,27.34
2023-02-03T02:30:02.279Z,27.31
2023-02-03T02:31:02.370Z,27.34
2023-02-03T02:32:02.379Z,27.36
2023-02-03T02:33:02.315Z,27.34
2023-02-03T02:34:03.648Z,27.34
2023-02-03T02:35:02.304Z,27.33
2023-02-03T02:36:02.332Z,27.35
2023-02-03T02:37:02.336Z,27.34
2023-02-03T02:38:02.355Z,27.33
2023-02-03T02:39:02.374Z,27.35
2023-02-03T02:40:02.377Z,27.37
2023-02-03T02:41:02.378Z,27.38
2023-02-03T02:42:02.404Z,27.34
2023-02-03T02:43:02.392Z,27.38
2023-02-03T02:44:02.405Z,27.37
2023-02-03T02:45:02.449Z,27.35
2023-02-03T02:46:02.542Z,27.39
2023-02-03T02:47:02.419Z,27.38
2023-02-03T02:48:02.455Z,27.36
2023-02-03T02:49:02.441Z,27.37
2023-02-03T02:50:02.472Z,27.39
2023-02-03T02:51:02.483Z,27.37
2023-02-03T02:52:02.465Z,27.35
2023-02-03T02:53:02.472Z,27.38
2023-02-03T02:54:02.485Z,27.38
2023-02-03T02:55:02.528Z,27.38
2023-02-03T02:56:02.511Z,27.39
2023-02-03T02:57:02.513Z,27.43
2023-02-03T02:58:02.530Z,27.45
2023-02-03T02:59:02.540Z,27.46
2023-02-03T03:00:02.556Z,27.47
2023-02-03T03:01:02.539Z,27.46
2023-02-03T03:02:02.567Z,27.42
2023-02-03T03:03:02.560Z,27.45
2023-02-03T03:04:02.543Z,27.46
2023-02-03T03:05:02.692Z,27.45
2023-02-03T03:06:02.588Z,27.45
2023-02-03T03:07:02.610Z,27.43
2023-02-03T03:08:02.602Z,27.45
2023-02-03T03:09:02.648Z,27.46
2023-02-03T03:10:02.669Z,27.47
2023-02-03T03:11:02.659Z,27.48
2023-02-03T03:12:02.639Z,27.50
2023-02-03T03:13:02.674Z,27.47
2023-02-03T03:14:02.698Z,27.51
2023-02-03T03:15:02.688Z,27.50
2023-02-03T03:16:02.745Z,27.49
2023-02-03T03:17:02.681Z,27.51
2023-02-03T03:18:02.728Z,27.52
2023-02-03T03:19:02.690Z,27.53
2023-02-03T03:20:02.775Z,27.51
2023-02-03T03:21:02.723Z,27.54
2023-02-03T03:22:02.738Z,27.54
2023-02-03T03:23:02.737Z,27.51
2023-02-03T03:24:02.743Z,27.50
2023-02-03T03:25:02.752Z,27.52
2023-02-03T03:26:02.750Z,27.51
2023-02-03T03:27:02.773Z,27.52
2023-02-03T03:28:02.842Z,27.56
2023-02-03T03:29:02.791Z,27.54
2023-02-03T03:30:02.812Z,27.55
2023-02-03T03:31:02.901Z,27.56
2023-02-03T03:32:02.945Z,27.55
2023-02-03T03:33:02.827Z,27.55
2023-02-03T03:34:02.826Z,27.56
2023-02-03T03:35:02.854Z,27.57
2023-02-03T03:36:02.846Z,27.56
2023-02-03T03:37:02.878Z,27.57
2023-02-03T03:38:02.879Z,27.54
2023-02-03T03:39:02.863Z,27.59
2023-02-03T03:40:02.869Z,27.58
2023-02-03T03:41:02.873Z,27.57
2023-02-03T03:42:02.874Z,27.58
2023-02-03T03:43:02.883Z,27.60
2023-02-03T03:44:02.890Z,27.58
2023-02-03T03:45:02.894Z,27.61
2023-02-03T03:46:02.929Z,27.61
2023-02-03T03:47:02.888Z,27.62
2023-02-03T03:48:02.908Z,27.61
2023-02-03T03:49:02.910Z,27.63
2023-02-03T03:50:02.938Z,27.61
2023-02-03T03:51:02.922Z,27.61
2023-02-03T03:52:02.907Z,27.60
2023-02-03T03:53:02.930Z,27.60
2023-02-03T03:54:02.938Z,27.61
2023-02-03T03:55:02.966Z,27.59
2023-02-03T03:56:02.920Z,27.63
2023-02-03T03:57:02.983Z,27.62
2023-02-03T03:58:02.974Z,27.62
2023-02-03T03:59:02.935Z,27.63
2023-02-03T04:00:02.945Z,27.65
2023-02-03T04:01:03.028Z,27.62
2023-02-03T04:02:03.031Z,27.64
2023-02-03T04:03:03.009Z,27.66
2023-02-03T04:04:02.962Z,27.65
2023-02-03T04:05:02.979Z,27.65
2023-02-03T04:06:03.010Z,27.68
2023-02-03T04:07:02.981Z,27.67
2023-02-03T04:08:02.987Z,27.70
2023-02-03T04:09:03.017Z,27.70
2023-02-03T04:10:03.008Z,27.71
2023-02-03T04:11:03.039Z,27.74
2023-02-03T04:12:03.033Z,27.72
2023-02-03T04:13:03.054Z,27.74
2023-02-03T04:14:03.030Z,27.73
2023-02-03T04:15:03.047Z,27.74
2023-02-03T04:16:03.138Z,27.71
2023-02-03T04:17:03.110Z,27.72
2023-02-03T04:18:03.078Z,27.71
2023-02-03T04:19:03.092Z,27.74
2023-02-03T04:20:03.096Z,27.74
2023-02-03T04:21:03.110Z,27.77
2023-02-03T04:22:03.089Z,27.77
2023-02-03T04:23:03.083Z,27.80
2023-02-03T04:24:03.113Z,27.79
2023-02-03T04:25:03.098Z,27.77
2023-02-03T04:26:03.108Z,27.75
2023-02-03T04:27:05.149Z,27.77
2023-02-03T04:28:03.185Z,27.76
2023-02-03T04:29:03.128Z,27.76
2023-02-03T04:30:03.124Z,27.74
2023-02-03T04:31:03.142Z,27.74
2023-02-03T04:32:03.198Z,27.78
2023-02-03T04:33:03.147Z,27.81
2023-02-03T04:34:03.147Z,27.79
2023-02-03T04:35:03.180Z,27.77
2023-02-03T04:36:03.158Z,27.81
2023-02-03T04:37:03.185Z,27.80
2023-02-03T04:38:03.181Z,27.80
2023-02-03T04:39:03.193Z,27.81
2023-02-03T04:40:03.187Z,27.82
2023-02-03T04:41:03.208Z,27.82
2023-02-03T04:42:03.200Z,27.81
2023-02-03T04:43:03.196Z,27.84
2023-02-03T04:44:03.217Z,27.84
2023-02-03T04:45:03.227Z,27.82
2023-02-03T04:46:03.306Z,27.83
2023-02-03T04:47:03.217Z,27.85
2023-02-03T04:48:03.229Z,27.84
2023-02-03T04:49:03.238Z,27.86
2023-02-03T04:50:03.233Z,27.83
2023-02-03T04:51:03.265Z,27.86
2023-02-03T04:52:03.268Z,27.86
2023-02-03T04:53:03.270Z,27.84
2023-02-03T04:54:03.252Z,27.83
2023-02-03T06:29:04.097Z,26.57
2023-02-03T06:30:03.911Z,26.49
2023-02-03T06:31:04.010Z,25.92
2023-02-03T06:32:04.017Z,25.66
2023-02-03T06:33:03.899Z,26.34
2023-02-03T06:34:03.902Z,26.40
2023-02-03T06:35:03.902Z,26.18
2023-02-03T06:36:03.924Z,26.16
2023-02-03T06:37:03.923Z,26.21
2023-02-03T06:38:03.978Z,26.52
2023-02-03T06:39:03.926Z,26.45
2023-02-03T06:40:03.944Z,26.04
2023-02-03T06:41:03.959Z,25.65
2023-02-03T06:42:03.954Z,25.72
2023-02-03T06:43:04.006Z,25.29
2023-02-03T06:44:04.073Z,24.82
2023-02-03T06:45:04.102Z,24.46
2023-02-03T06:46:04.072Z,23.54
2023-02-03T06:47:04.011Z,24.06
2023-02-03T06:48:04.006Z,25.95
2023-02-03T06:49:04.056Z,26.50
2023-02-03T06:50:04.050Z,26.98
2023-02-03T06:52:04.040Z,27.16
2023-02-03T06:53:04.028Z,27.20
2023-02-03T06:55:04.035Z,27.32
2023-02-03T06:57:05.005Z,27.73
2023-02-03T07:00:04.421Z,26.68
2023-02-03T07:01:03.963Z,26.86
2023-02-03T07:02:03.975Z,27.22
2023-02-03T07:03:04.041Z,27.71
2023-02-03T07:04:04.099Z,27.25
2023-02-03T07:05:03.919Z,27.22
2023-02-03T07:06:05.654Z,27.64
2023-02-03T07:07:04.657Z,27.07
2023-02-03T07:08:03.963Z,27.06
2023-02-03T07:09:03.959Z,27.11
2023-02-03T07:10:04.753Z,27.35
2023-02-03T07:11:03.956Z,27.78
2023-02-03T07:12:03.884Z,27.58
2023-02-03T07:13:03.932Z,27.54
2023-02-03T07:14:03.904Z,27.66
2023-02-03T07:15:03.887Z,27.50
2023-02-03T07:16:03.892Z,27.81
2023-02-03T07:17:04.687Z,27.52
2023-02-03T07:18:03.836Z,27.22
2023-02-03T07:19:03.916Z,27.38
2023-02-03T07:20:03.827Z,27.30
2023-02-03T07:21:03.792Z,27.18
2023-02-03T07:22:03.804Z,27.26
2023-02-03T07:23:03.799Z,27.05
2023-02-03T07:24:03.863Z,27.00
2023-02-03T07:25:03.809Z,27.01
2023-02-03T07:26:03.745Z,26.98
2023-02-03T07:27:04.633Z,26.98
2023-02-03T07:28:05.275Z,27.06
2023-02-03T07:29:05.481Z,26.97
2023-02-03T07:30:04.165Z,27.04
2023-02-03T07:31:03.844Z,27.23
2023-02-03T07:32:03.849Z,27.11
2023-02-03T07:33:03.779Z,26.99
2023-02-03T07:34:04.228Z,27.11
2023-02-03T07:35:04.834Z,27.03
2023-02-03T07:36:04.818Z,26.96
2023-02-03T07:37:03.731Z,27.16
2023-02-03T07:38:03.832Z,27.19
2023-02-03T07:39:03.767Z,27.01
2023-02-03T07:40:03.908Z,26.94
2023-02-03T07:41:03.865Z,27.15
2023-02-03T07:42:03.783Z,27.04
2023-02-03T07:43:04.087Z,27.24
2023-02-03T07:44:04.795Z,28.07
2023-02-03T07:45:04.911Z,28.09
2023-02-03T07:46:04.327Z,27.91
2023-02-03T07:47:05.634Z,28.08
2023-02-03T07:48:03.708Z,27.96
2023-02-03T07:49:04.115Z,28.04
2023-02-03T07:50:04.026Z,28.13
2023-02-03T07:51:03.799Z,28.24
2023-02-03T07:52:04.710Z,28.10
2023-02-03T07:53:05.812Z,27.78
2023-02-03T07:54:04.831Z,27.49
2023-02-03T07:55:03.700Z,28.09
2023-02-03T07:56:03.701Z,27.66
2023-02-03T07:57:03.729Z,27.16
2023-02-03T07:58:03.691Z,27.76
2023-02-03T07:59:05.680Z,27.75
2023-02-03T08:00:03.679Z,27.52
2023-02-03T08:02:13.453Z,27.83
2023-02-03T08:03:12.884Z,27.46
2023-02-03T08:04:11.675Z,27.74
2023-02-03T08:05:11.720Z,27.14
2023-02-03T08:06:11.583Z,27.02
2023-02-03T08:07:11.516Z,26.97
2023-02-03T08:08:11.511Z,27.09
2023-02-03T08:09:11.565Z,26.89
2023-02-03T08:10:11.443Z,27.03
2023-02-03T08:11:11.394Z,27.30
2023-02-03T08:12:11.326Z,26.99
2023-02-03T08:13:11.279Z,27.06
2023-02-03T08:14:11.248Z,27.18
2023-02-03T08:15:11.430Z,27.67
2023-02-03T08:16:11.270Z,27.71
2023-02-03T08:17:11.121Z,27.11
2023-02-03T08:18:11.160Z,27.12
2023-02-03T08:19:11.051Z,27.54
2023-02-03T08:20:11.043Z,28.13
2023-02-03T08:21:11.043Z,27.67
2023-02-03T08:22:10.955Z,27.89
2023-02-03T08:23:10.916Z,27.57
2023-02-03T08:25:10.908Z,27.50
2023-02-03T08:58:09.834Z,24.50
2023-02-03T09:20:09.106Z,25.38
2023-02-03T09:22:09.005Z,25.60
2023-02-03T09:24:08.954Z,25.91
2023-02-03T09:25:08.911Z,25.98
2023-02-03T09:26:08.858Z,26.17
2023-02-03T09:27:08.865Z,26.15
2023-02-03T09:28:08.853Z,26.21
2023-02-03T09:29:08.928Z,26.33
2023-02-03T09:30:08.742Z,26.45
2023-02-03T09:34:08.817Z,27.35
2023-02-03T09:36:08.782Z,27.02
2023-02-03T09:38:08.666Z,27.12
2023-02-03T09:39:08.612Z,27.35
2023-02-03T09:40:08.573Z,27.36
2023-02-03T09:41:12.011Z,27.75
2023-02-03T09:42:08.481Z,27.87
2023-02-03T09:43:08.536Z,27.91
2023-02-03T09:47:09.135Z,27.91
2023-02-03T09:48:08.345Z,27.48
2023-02-03T09:49:08.263Z,27.11
2023-02-03T09:50:08.228Z,26.73
2023-02-03T09:51:08.238Z,26.55
2023-02-03T09:52:08.235Z,26.44
2023-02-03T09:53:08.143Z,26.30
2023-02-03T09:54:08.097Z,26.00
2023-02-03T09:56:08.063Z,25.49
2023-02-03T09:57:09.902Z,25.34
2023-02-03T09:58:07.970Z,25.21
2023-02-03T10:00:08.186Z,25.06
2023-02-03T10:01:07.964Z,25.02
2023-02-03T10:02:07.963Z,24.82
2023-02-03T10:03:07.873Z,24.67
2023-02-03T10:04:07.753Z,24.63
2023-02-03T10:05:07.760Z,24.46
2023-02-03T10:07:07.668Z,24.37
2023-02-03T10:08:07.625Z,24.29
2023-02-03T10:09:07.633Z,24.22
2023-02-03T10:10:07.640Z,24.15
2023-02-03T10:11:07.551Z,24.10
2023-02-03T10:12:07.590Z,24.03
2023-02-03T10:13:07.454Z,23.99
2023-02-03T10:14:07.419Z,23.94
2023-02-03T10:15:07.410Z,23.90
2023-02-03T10:16:07.396Z,23.82
2023-02-03T10:17:07.508Z,23.80
2023-02-03T10:18:07.299Z,23.75
2023-02-03T10:19:07.284Z,23.75
2023-02-03T10:20:28.638Z,23.68
2023-02-03T10:22:07.209Z,23.66
2023-02-03T10:23:07.329Z,23.60
2023-02-03T10:24:07.227Z,23.59
2023-02-03T10:25:07.120Z,23.58
2023-02-03T10:26:07.157Z,23.57
2023-02-03T10:27:07.281Z,23.54
2023-02-03T10:28:07.039Z,23.50
2023-02-03T10:29:06.940Z,23.47
2023-02-03T10:30:07.146Z,23.51
2023-02-03T10:31:06.926Z,23.46
2023-02-03T10:32:07.161Z,23.49
2023-02-03T10:33:06.808Z,23.48
2023-02-03T10:34:06.868Z,23.44
2023-02-03T10:35:06.800Z,23.53
2023-02-03T10:36:06.695Z,23.57
2023-02-03T10:37:06.813Z,23.63
2023-02-03T10:38:06.640Z,23.61
2023-02-03T10:39:06.489Z,23.61
2023-02-03T10:40:06.450Z,24.21
2023-02-03T10:43:06.464Z,24.56
2023-02-03T10:44:06.367Z,25.45
2023-02-03T10:45:06.423Z,24.36
2023-02-03T10:46:06.341Z,24.64
2023-02-03T10:47:06.402Z,24.89
2023-02-03T10:48:06.346Z,25.32
2023-02-03T10:49:06.371Z,25.07
2023-02-03T10:50:06.341Z,25.06
2023-02-03T10:51:06.398Z,24.09
2023-02-03T10:52:06.433Z,24.02
2023-02-03T10:53:06.305Z,23.23
2023-02-03T10:54:06.237Z,23.37
2023-02-03T10:55:06.317Z,24.99
2023-02-03T10:57:06.280Z,24.56
2023-02-03T11:16:05.699Z,25.02
2023-02-03T11:17:05.617Z,24.91
2023-02-03T11:20:05.657Z,25.31
2023-02-03T11:21:05.530Z,25.53
2023-02-03T11:22:05.445Z,25.63
2023-02-03T11:24:05.608Z,25.98
2023-02-03T11:25:05.407Z,26.10
2023-02-03T11:26:05.266Z,26.17
2023-02-03T11:27:05.260Z,26.23
2023-02-03T11:28:05.330Z,26.42
2023-02-03T11:29:05.315Z,26.47
2023-02-03T11:30:05.194Z,26.58
2023-02-03T11:31:05.225Z,26.98
2023-02-03T11:32:05.133Z,27.17
2023-02-03T11:33:05.015Z,26.84
2023-02-03T11:34:05.024Z,26.73
2023-02-03T11:35:04.950Z,26.75
2023-02-03T11:36:04.954Z,27.42
2023-02-03T11:37:04.933Z,27.23
2023-02-03T11:38:04.978Z,26.36
2023-02-03T11:39:04.883Z,24.39
2023-02-03T11:40:05.209Z,23.06
2023-02-03T11:41:04.872Z,23.07
2023-02-03T11:42:04.744Z,22.88
2023-02-03T11:44:04.703Z,23.47
2023-02-03T11:45:04.736Z,23.18
2023-02-03T11:46:04.760Z,23.64
2023-02-03T11:47:04.731Z,24.47
2023-02-03T13:37:01.205Z,27.71
2023-02-03T13:38:01.183Z,27.69
2023-02-03T13:39:01.118Z,27.65
2023-02-03T13:40:01.158Z,27.64
2023-02-03T13:41:01.042Z,27.59
2023-02-03T13:42:01.017Z,27.61
2023-02-03T13:43:00.989Z,27.60
2023-02-03T13:44:00.946Z,27.58
2023-02-03T13:45:00.923Z,27.53
2023-02-03T13:46:00.972Z,27.55
2023-02-03T15:27:57.367Z,27.22
2023-02-03T15:28:57.302Z,27.24
2023-02-03T15:29:57.269Z,27.23
2023-02-03T15:30:57.287Z,27.21
2023-02-03T15:31:57.259Z,27.23
2023-02-03T15:32:57.134Z,27.23
2023-02-03T15:33:57.231Z,27.21
2023-02-03T15:34:57.067Z,27.21
2023-02-03T15:35:57.062Z,27.20
2023-02-03T15:36:57.024Z,27.22
2023-02-03T15:37:57.004Z,27.22
2023-02-03T15:38:56.957Z,27.21
2023-02-03T15:39:56.975Z,27.24
2023-02-03T15:40:56.869Z,27.24
2023-02-03T15:41:56.880Z,27.23
2023-02-03T15:42:56.849Z,27.27
2023-02-03T15:43:56.785Z,27.27
2023-02-03T15:44:56.760Z,27.27
2023-02-03T15:45:56.761Z,27.25
2023-02-03T15:46:56.868Z,27.24
2023-02-03T15:47:56.769Z,27.24
2023-02-03T15:48:56.770Z,27.22
2023-02-03T15:49:56.755Z,27.23
2023-02-03T15:50:56.631Z,27.22
2023-02-03T15:51:56.633Z,27.23
2023-02-03T15:52:56.717Z,27.21
2023-02-03T15:53:56.615Z,27.24
2023-02-03T15:54:56.536Z,27.25
2023-02-03T15:55:56.719Z,27.27
2023-02-03T15:56:56.489Z,27.27
2023-02-03T15:57:56.535Z,27.25
2023-02-03T15:58:56.396Z,27.25
2023-02-03T15:59:56.358Z,27.26
2023-02-03T16:00:56.368Z,27.27
2023-02-03T16:01:56.380Z,27.25
2023-02-03T16:02:56.422Z,27.24
2023-02-03T16:03:56.295Z,27.26
2023-02-03T16:04:56.261Z,27.25
2023-02-03T16:05:56.221Z,27.25
2023-02-03T16:06:56.195Z,27.24
2023-02-03T16:07:56.210Z,27.24
2023-02-03T16:08:56.191Z,27.25
2023-02-03T16:09:56.136Z,27.26
2023-02-03T16:10:56.103Z,27.27
2023-02-03T16:11:56.075Z,27.28
2023-02-03T16:12:56.062Z,27.27
2023-02-03T16:13:56.060Z,27.29
2023-02-03T16:14:56.013Z,27.27
2023-02-03T16:15:55.998Z,27.26
2023-02-03T16:17:04.857Z,27.27
2023-02-03T16:18:55.884Z,27.31
2023-02-03T16:19:55.876Z,27.30
2023-02-03T16:20:55.841Z,27.31
2023-02-03T16:21:55.872Z,27.30
2023-02-03T16:22:55.813Z,27.29
2023-02-03T16:23:55.759Z,27.33
2023-02-03T16:24:55.711Z,27.27
2023-02-03T16:25:55.691Z,27.31
2023-02-03T16:26:55.688Z,27.30
2023-02-03T16:27:55.680Z,27.34
2023-02-03T16:28:55.621Z,27.35
2023-02-03T16:29:55.608Z,27.34
2023-02-03T16:30:55.652Z,27.33
2023-02-03T16:31:55.580Z,27.34
2023-02-03T16:32:55.520Z,27.37
2023-02-03T16:33:55.467Z,27.37
2023-02-03T16:34:55.465Z,27.35
2023-02-03T16:35:55.433Z,27.34
2023-02-03T16:36:55.411Z,27.34
2023-02-03T16:37:55.856Z,27.38
2023-02-03T16:38:55.362Z,27.38
2023-02-03T16:39:55.328Z,27.38
2023-02-03T16:40:55.306Z,27.36
2023-02-03T16:41:55.303Z,27.37
2023-02-03T16:42:55.274Z,27.35
2023-02-03T16:43:55.218Z,27.36
2023-02-03T16:44:55.174Z,27.35
2023-02-03T16:45:55.239Z,27.35
2023-02-03T16:46:55.141Z,27.36
2023-02-03T16:47:55.100Z,27.36
2023-02-03T16:48:55.110Z,27.37
2023-02-03T16:49:55.039Z,27.39
2023-02-03T16:50:56.356Z,27.39
2023-02-03T16:51:55.071Z,27.40
2023-02-03T16:52:55.013Z,27.37
2023-02-03T16:53:55.017Z,27.39
2023-02-03T16:54:54.969Z,27.36
2023-02-03T16:55:54.958Z,27.34
2023-02-03T16:56:56.221Z,27.38
2023-02-03T16:57:54.898Z,27.38
2023-02-03T16:58:54.872Z,27.38
2023-02-03T16:59:54.862Z,27.38
2023-02-03T17:00:54.844Z,27.37
2023-02-03T17:01:54.852Z,27.37
2023-02-03T17:02:55.509Z,27.38
2023-02-03T17:03:54.786Z,27.38
2023-02-03T17:04:54.731Z,27.41
2023-02-03T17:05:54.729Z,27.41
2023-02-03T17:06:54.706Z,27.39
2023-02-03T17:07:54.701Z,27.38
2023-02-03T17:08:54.671Z,27.37
2023-02-03T17:09:54.626Z,27.39
2023-02-03T17:10:54.576Z,27.39
2023-02-03T17:11:54.589Z,27.38
2023-02-03T17:12:54.545Z,27.37
2023-02-03T17:13:54.516Z,27.37
2023-02-03T17:14:54.501Z,27.36
2023-02-03T17:15:54.453Z,27.35
2023-02-03T17:16:54.437Z,27.36
2023-02-03T17:17:54.403Z,27.38
2023-02-03T17:18:54.403Z,27.38
2023-02-03T17:19:54.379Z,27.42
2023-02-03T17:21:54.339Z,27.40
2023-02-03T17:22:54.308Z,27.40
2023-02-03T17:23:54.305Z,27.39
2023-02-03T17:24:54.261Z,27.41
2023-02-03T17:25:54.216Z,27.40
2023-02-03T17:26:54.182Z,27.44
2023-02-03T17:27:54.228Z,27.44
2023-02-03T17:28:54.169Z,27.43
2023-02-03T17:29:54.123Z,27.43
2023-02-03T17:30:54.105Z,27.45
2023-02-03T17:31:54.125Z,27.46
2023-02-03T17:32:54.037Z,27.45
2023-02-03T17:33:54.045Z,27.42
2023-02-03T17:34:54.020Z,27.42
2023-02-03T17:35:53.976Z,27.44
2023-02-03T17:36:53.938Z,27.42
2023-02-03T17:37:53.911Z,27.42
2023-02-03T17:54:17.777Z,27.57
2023-02-03T17:55:17.678Z,27.52
2023-02-03T17:56:17.649Z,27.51
2023-02-03T17:57:17.623Z,27.51
2023-02-03T17:58:17.592Z,27.49
2023-02-03T17:59:17.551Z,27.49
2023-02-03T18:00:17.521Z,27.47
2023-02-03T18:01:17.562Z,27.45
2023-02-03T18:02:17.458Z,27.46
2023-02-03T18:03:17.416Z,27.45
2023-02-03T18:04:17.368Z,27.46
2023-02-03T18:05:17.316Z,27.45
2023-02-03T18:06:17.281Z,27.48
2023-02-03T18:07:17.235Z,27.46
2023-02-03T18:08:20.497Z,27.43
2023-02-03T18:09:18.141Z,27.44
2023-02-03T18:10:17.243Z,27.44
2023-02-03T18:11:17.130Z,27.45
2023-02-03T18:12:17.062Z,27.46
2023-02-03T18:13:17.015Z,27.45
2023-02-03T18:14:16.959Z,27.45
2023-02-03T18:15:16.933Z,27.46
2023-02-03T18:16:16.865Z,27.44
2023-02-03T18:17:16.848Z,27.44
2023-02-03T18:18:16.795Z,27.45
2023-02-03T18:19:16.757Z,27.45
2023-02-03T18:20:16.714Z,27.45
2023-02-03T18:21:16.677Z,27.47
2023-02-03T18:22:16.631Z,27.45
2023-02-03T18:23:16.663Z,27.45
2023-02-03T18:24:16.552Z,27.43
2023-02-03T18:25:16.516Z,27.41
2023-02-03T18:26:16.445Z,27.44
2023-02-03T18:27:16.421Z,27.47
2023-02-03T18:28:16.388Z,27.48
2023-02-03T18:29:16.323Z,27.49
2023-02-03T18:30:16.328Z,27.47
2023-02-03T18:31:16.377Z,27.46
2023-02-03T18:32:16.213Z,27.48
2023-02-03T18:33:16.177Z,27.50
2023-02-03T18:34:16.137Z,27.49
2023-02-03T18:35:16.116Z,27.48
2023-02-03T18:36:16.053Z,27.48
2023-02-03T18:37:16.023Z,27.48
2023-02-03T18:38:15.993Z,27.49
2023-02-03T18:39:15.947Z,27.50
2023-02-03T18:40:15.911Z,27.51
2023-02-03T18:41:15.866Z,27.48
2023-02-03T18:42:15.845Z,27.48
2023-02-03T18:43:15.810Z,27.50
2023-02-03T18:44:15.798Z,27.49
2023-02-03T18:45:15.733Z,27.48
2023-02-03T18:46:15.697Z,27.50
2023-02-03T18:47:15.634Z,27.50
2023-02-03T18:48:15.602Z,27.46
2023-02-03T18:49:15.536Z,27.48
2023-02-03T18:50:15.521Z,27.48
2023-02-03T18:51:15.461Z,27.53
2023-02-03T18:52:15.436Z,27.50
2023-02-03T18:53:15.341Z,27.49
2023-02-03T18:54:15.339Z,27.50
2023-02-03T18:55:15.317Z,27.47
2023-02-03T18:56:15.402Z,27.46
2023-02-03T18:57:15.214Z,27.43
2023-02-03T18:58:15.164Z,27.42
2023-02-03T18:59:15.109Z,27.43
2023-02-03T19:00:15.068Z,27.43
2023-02-03T19:01:15.060Z,27.42
2023-02-03T19:02:14.996Z,27.44
2023-02-03T19:03:14.893Z,27.45
2023-02-03T19:04:14.851Z,27.46
2023-02-03T19:05:14.807Z,27.44
2023-02-03T19:06:14.784Z,27.43
2023-02-03T19:07:14.690Z,27.41
2023-02-03T19:08:14.645Z,27.41
2023-02-03T19:09:14.589Z,27.39
2023-02-03T19:10:14.557Z,27.39
2023-02-03T19:11:14.529Z,27.38
2023-02-03T19:12:14.468Z,27.36
2023-02-03T19:13:14.398Z,27.38
2023-02-03T19:14:14.383Z,27.40
2023-02-03T19:15:14.339Z,27.36
2023-02-03T19:16:14.361Z,27.36
2023-02-03T19:17:14.237Z,27.38
2023-02-03T19:18:14.174Z,27.39
2023-02-03T19:19:14.133Z,27.39
2023-02-03T19:20:14.123Z,27.40
2023-02-03T19:21:14.082Z,27.41
2023-02-03T19:22:14.012Z,27.42
2023-02-03T19:23:13.958Z,27.42
2023-02-03T19:24:13.933Z,27.41
2023-02-03T19:25:13.884Z,27.40
2023-02-03T19:26:13.854Z,27.40
2023-02-03T19:27:13.819Z,27.39
2023-02-03T19:28:17.749Z,27.35
2023-02-03T19:30:13.675Z,27.35
2023-02-03T19:31:13.726Z,27.36
2023-02-03T19:32:13.710Z,27.32
2023-02-03T19:33:13.549Z,27.34
2023-02-03T19:34:13.508Z,27.33
2023-02-03T19:35:13.455Z,27.34
2023-02-03T19:36:13.427Z,27.35
2023-02-03T19:37:13.389Z,27.35
2023-02-03T19:38:13.322Z,27.33
2023-02-03T19:39:13.279Z,27.35
2023-02-03T19:40:13.234Z,27.35
2023-02-03T19:41:13.210Z,27.34
2023-02-03T19:42:13.149Z,27.30
2023-02-03T19:43:13.098Z,27.31
2023-02-03T19:44:13.088Z,27.30
2023-02-03T19:45:13.058Z,27.25
2023-02-03T19:46:13.027Z,27.28
2023-02-03T19:47:12.929Z,27.28
2023-02-03T19:48:12.917Z,27.26
2023-02-03T19:49:12.879Z,27.26
2023-02-03T19:50:12.819Z,27.24
2023-02-03T19:51:12.790Z,27.23
2023-02-03T19:52:12.714Z,27.25
2023-02-03T19:53:12.711Z,27.29